sensor_id;sensor_type;location;lat;lon;timestamp;pressure;altitude;pressure_sealevel;temperature;humidity
56272;BME280;42177;48.914;18.160;2024-02-28T00:03:04;984.4;;;12.9;91.8
56272;BME280;42177;48.914;18.160;2024-02-28T00:08:04;984.3;;;13;90.7
56272;BME280;42177;48.914;18.160;2024-02-28T00:13:04;984.3;;;13;90.7
56272;BME280;42177;48.914;18.160;2024-02-28T00:18:04;984.3;;;12.7;92.5
56272;BME280;42177;48.914;18.160;2024-02-28T00:23:04;984.3;;;12.7;92.5
56272;BME280;42177;48.914;18.160;2024-02-28T00:28:04;984.3;;;12.5;92.4
56272;BME280;42177;48.914;18.160;2024-02-28T00:33:04;984.3;;;12.5;92.4
56272;BME280;42177;48.914;18.160;2024-02-28T00:38:04;984.4;;;12.6;92.6
56272;BME280;42177;48.914;18.160;2024-02-28T00:43:04;984.4;;;12.6;92.6
56272;BME280;42177;48.914;18.160;2024-02-28T00:48:04;984.4;;;12.4;94.2
56272;BME280;42177;48.914;18.160;2024-02-28T00:53:04;984.4;;;12.4;94.2
56272;BME280;42177;48.914;18.160;2024-02-28T00:58:04;984.4;;;12.7;93.5
56272;BME280;42177;48.914;18.160;2024-02-28T01:03:04;984.4;;;12.7;93.5
56272;BME280;42177;48.914;18.160;2024-02-28T01:08:04;984.3;;;12.3;94.1
56272;BME280;42177;48.914;18.160;2024-02-28T01:13:04;984.3;;;12.3;94.1
56272;BME280;42177;48.914;18.160;2024-02-28T01:18:04;984.4;;;12.1;94.6
56272;BME280;42177;48.914;18.160;2024-02-28T01:23:04;984.4;;;12.1;94.6
56272;BME280;42177;48.914;18.160;2024-02-28T01:28:04;984.5;;;12;96.4
56272;BME280;42177;48.914;18.160;2024-02-28T01:33:04;984.5;;;12;96.4
56272;BME280;42177;48.914;18.160;2024-02-28T01:38:04;984.5;;;11.9;95.8
56272;BME280;42177;48.914;18.160;2024-02-28T01:43:04;984.5;;;11.9;95.8
56272;BME280;42177;48.914;18.160;2024-02-28T01:48:04;984.5;;;12.3;94.9
56272;BME280;42177;48.914;18.160;2024-02-28T01:53:04;984.5;;;12.3;94.9
56272;BME280;42177;48.914;18.160;2024-02-28T01:58:04;984.6;;;11.9;95.8
56272;BME280;42177;48.914;18.160;2024-02-28T02:03:04;984.6;;;11.9;95.8
56272;BME280;42177;48.914;18.160;2024-02-28T02:08:04;984.6;;;11.9;94.7
56272;BME280;42177;48.914;18.160;2024-02-28T02:13:04;984.6;;;11.9;94.7
56272;BME280;42177;48.914;18.160;2024-02-28T02:18:04;984.4;;;12;92.9
56272;BME280;42177;48.914;18.160;2024-02-28T02:23:04;984.4;;;12;92.9
56272;BME280;42177;48.914;18.160;2024-02-28T02:28:04;984.5;;;11.9;93.9
56272;BME280;42177;48.914;18.160;2024-02-28T02:33:04;984.5;;;11.9;93.9
56272;BME280;42177;48.914;18.160;2024-02-28T02:38:04;984.4;;;12;94.6
56272;BME280;42177;48.914;18.160;2024-02-28T02:43:04;984.4;;;12;94.6
56272;BME280;42177;48.914;18.160;2024-02-28T02:48:04;984.5;;;12;94.3
56272;BME280;42177;48.914;18.160;2024-02-28T02:53:04;984.5;;;12;94.3
56272;BME280;42177;48.914;18.160;2024-02-28T02:58:04;984.7;;;11.7;96
56272;BME280;42177;48.914;18.160;2024-02-28T03:03:04;984.7;;;11.7;96
56272;BME280;42177;48.914;18.160;2024-02-28T03:08:04;984.7;;;11.9;95.3
56272;BME280;42177;48.914;18.160;2024-02-28T03:13:04;984.7;;;11.9;95.3
56272;BME280;42177;48.914;18.160;2024-02-28T03:18:04;984.8;;;11.8;96.7
56272;BME280;42177;48.914;18.160;2024-02-28T03:23:04;984.8;;;11.8;96.7
56272;BME280;42177;48.914;18.160;2024-02-28T03:28:04;984.8;;;12;95.7
56272;BME280;42177;48.914;18.160;2024-02-28T03:33:04;984.8;;;12;95.7
56272;BME280;42177;48.914;18.160;2024-02-28T03:38:04;984.9;;;11.7;96.3
56272;BME280;42177;48.914;18.160;2024-02-28T03:43:04;984.9;;;11.7;96.3
56272;BME280;42177;48.914;18.160;2024-02-28T03:48:04;985;;;11.8;97.6
56272;BME280;42177;48.914;18.160;2024-02-28T03:53:04;985;;;11.8;97.6
56272;BME280;42177;48.914;18.160;2024-02-28T03:58:04;985;;;11.8;97.1
56272;BME280;42177;48.914;18.160;2024-02-28T04:03:05;985;;;11.8;97.1
56272;BME280;42177;48.914;18.160;2024-02-28T04:08:04;985;;;11.7;97.9
56272;BME280;42177;48.914;18.160;2024-02-28T04:13:04;985;;;11.7;97.9
56272;BME280;42177;48.914;18.160;2024-02-28T04:18:04;985;;;11.9;97.3
56272;BME280;42177;48.914;18.160;2024-02-28T04:23:04;985;;;11.9;97.3
56272;BME280;42177;48.914;18.160;2024-02-28T04:28:04;985.1;;;11.4;100
56272;BME280;42177;48.914;18.160;2024-02-28T04:33:04;985.1;;;11.4;100
56272;BME280;42177;48.914;18.160;2024-02-28T04:38:04;985.2;;;11.8;98.7
56272;BME280;42177;48.914;18.160;2024-02-28T04:43:04;985.2;;;11.8;98.7
56272;BME280;42177;48.914;18.160;2024-02-28T04:48:04;985.1;;;11.5;99.8
56272;BME280;42177;48.914;18.160;2024-02-28T04:53:04;985.1;;;11.5;99.8
56272;BME280;42177;48.914;18.160;2024-02-28T04:58:04;985.1;;;11.6;100
56272;BME280;42177;48.914;18.160;2024-02-28T05:03:04;985.1;;;11.6;100
56272;BME280;42177;48.914;18.160;2024-02-28T05:08:04;985.3;;;11.6;100
56272;BME280;42177;48.914;18.160;2024-02-28T05:13:04;985.3;;;11.6;100
56272;BME280;42177;48.914;18.160;2024-02-28T05:18:04;985.3;;;11.7;99.9
56272;BME280;42177;48.914;18.160;2024-02-28T05:23:04;985.3;;;11.7;99.9
56272;BME280;42177;48.914;18.160;2024-02-28T05:28:04;985.3;;;11.6;100
56272;BME280;42177;48.914;18.160;2024-02-28T05:33:04;985.3;;;11.6;100
56272;BME280;42177;48.914;18.160;2024-02-28T05:38:04;985.4;;;11.7;99.6
56272;BME280;42177;48.914;18.160;2024-02-28T05:43:04;985.4;;;11.7;99.6
56272;BME280;42177;48.914;18.160;2024-02-28T05:48:04;985.4;;;11.9;98.7
56272;BME280;42177;48.914;18.160;2024-02-28T05:53:04;985.4;;;11.9;98.7
56272;BME280;42177;48.914;18.160;2024-02-28T05:58:04;985.6;;;11.9;99.5
56272;BME280;42177;48.914;18.160;2024-02-28T06:03:04;985.6;;;11.9;99.5
56272;BME280;42177;48.914;18.160;2024-02-28T06:08:04;985.7;;;11.8;99.7
56272;BME280;42177;48.914;18.160;2024-02-28T06:13:04;985.7;;;11.8;99.7
56272;BME280;42177;48.914;18.160;2024-02-28T06:18:04;985.9;;;11.6;100
56272;BME280;42177;48.914;18.160;2024-02-28T06:23:04;985.9;;;11.6;100
56272;BME280;42177;48.914;18.160;2024-02-28T06:28:04;986;;;11.9;100
56272;BME280;42177;48.914;18.160;2024-02-28T06:33:04;986;;;11.9;100
56272;BME280;42177;48.914;18.160;2024-02-28T06:38:04;986;;;11.9;100
56272;BME280;42177;48.914;18.160;2024-02-28T06:43:04;986;;;11.9;100
56272;BME280;42177;48.914;18.160;2024-02-28T06:48:04;986.1;;;12.1;99
56272;BME280;42177;48.914;18.160;2024-02-28T06:53:04;986.1;;;12.1;99
56272;BME280;42177;48.914;18.160;2024-02-28T06:58:04;986.2;;;12;100
56272;BME280;42177;48.914;18.160;2024-02-28T07:03:04;986.2;;;12;100
56272;BME280;42177;48.914;18.160;2024-02-28T07:08:04;986.2;;;11.9;100
56272;BME280;42177;48.914;18.160;2024-02-28T07:13:04;986.2;;;11.9;100
56272;BME280;42177;48.914;18.160;2024-02-28T07:18:04;986.2;;;12.3;98.6
56272;BME280;42177;48.914;18.160;2024-02-28T07:23:04;986.2;;;12.3;98.6
56272;BME280;42177;48.914;18.160;2024-02-28T07:28:04;986.3;;;12.5;96.9
56272;BME280;42177;48.914;18.160;2024-02-28T07:33:04;986.3;;;12.5;96.9
56272;BME280;42177;48.914;18.160;2024-02-28T07:38:04;986.2;;;12.7;95.7
56272;BME280;42177;48.914;18.160;2024-02-28T07:43:04;986.2;;;12.7;95.7
56272;BME280;42177;48.914;18.160;2024-02-28T07:48:04;986.3;;;12.8;94.6
56272;BME280;42177;48.914;18.160;2024-02-28T07:53:04;986.3;;;12.8;94.6
56272;BME280;42177;48.914;18.160;2024-02-28T07:58:04;986.5;;;12.7;97
56272;BME280;42177;48.914;18.160;2024-02-28T08:03:04;986.5;;;12.7;97
56272;BME280;42177;48.914;18.160;2024-02-28T08:08:04;986.5;;;12.7;97.9
56272;BME280;42177;48.914;18.160;2024-02-28T08:13:04;986.5;;;12.7;97.9
56272;BME280;42177;48.914;18.160;2024-02-28T08:18:04;986.5;;;12.6;98
56272;BME280;42177;48.914;18.160;2024-02-28T08:23:04;986.5;;;12.6;98
56272;BME280;42177;48.914;18.160;2024-02-28T08:28:04;986.6;;;12.9;97.5
56272;BME280;42177;48.914;18.160;2024-02-28T08:33:05;986.6;;;12.9;97.5
56272;BME280;42177;48.914;18.160;2024-02-28T08:38:04;986.7;;;13.1;95.7
56272;BME280;42177;48.914;18.160;2024-02-28T08:43:04;986.7;;;13.1;95.7
56272;BME280;42177;48.914;18.160;2024-02-28T08:48:04;986.7;;;13.1;93.6
56272;BME280;42177;48.914;18.160;2024-02-28T08:53:04;986.7;;;13.1;93.6
56272;BME280;42177;48.914;18.160;2024-02-28T08:58:04;986.8;;;13.4;91.6
56272;BME280;42177;48.914;18.160;2024-02-28T09:03:04;986.8;;;13.4;91.6
56272;BME280;42177;48.914;18.160;2024-02-28T09:08:04;986.8;;;13.5;89.5
56272;BME280;42177;48.914;18.160;2024-02-28T09:13:04;986.8;;;13.5;89.5
56272;BME280;42177;48.914;18.160;2024-02-28T09:18:04;986.9;;;13.5;90.3
56272;BME280;42177;48.914;18.160;2024-02-28T09:23:04;986.9;;;13.5;90.3
56272;BME280;42177;48.914;18.160;2024-02-28T09:28:04;986.9;;;13.9;89.4
56272;BME280;42177;48.914;18.160;2024-02-28T09:33:04;986.9;;;13.9;89.4
56272;BME280;42177;48.914;18.160;2024-02-28T09:38:04;987;;;14;90.1
56272;BME280;42177;48.914;18.160;2024-02-28T09:43:04;987;;;14;90.1
56272;BME280;42177;48.914;18.160;2024-02-28T09:48:04;987.2;;;14.4;84.2
56272;BME280;42177;48.914;18.160;2024-02-28T09:53:04;987.2;;;14.4;84.2
56272;BME280;42177;48.914;18.160;2024-02-28T09:58:04;987.2;;;14.8;80.9
56272;BME280;42177;48.914;18.160;2024-02-28T10:03:04;987.2;;;14.8;80.9
56272;BME280;42177;48.914;18.160;2024-02-28T10:08:05;987.2;;;15.3;80
56272;BME280;42177;48.914;18.160;2024-02-28T10:13:05;987.2;;;15.3;80
56272;BME280;42177;48.914;18.160;2024-02-28T10:18:04;987.3;;;15.6;78.5
56272;BME280;42177;48.914;18.160;2024-02-28T10:23:04;987.3;;;15.6;78.5
56272;BME280;42177;48.914;18.160;2024-02-28T10:28:04;987.3;;;16;74.9
56272;BME280;42177;48.914;18.160;2024-02-28T10:33:04;987.3;;;16;74.9
56272;BME280;42177;48.914;18.160;2024-02-28T10:38:04;987.3;;;16;71.7
56272;BME280;42177;48.914;18.160;2024-02-28T10:43:04;987.3;;;16;71.7
56272;BME280;42177;48.914;18.160;2024-02-28T10:48:04;987.3;;;16.1;70.6
56272;BME280;42177;48.914;18.160;2024-02-28T10:53:04;987.3;;;16.1;70.6
56272;BME280;42177;48.914;18.160;2024-02-28T10:58:06;987.4;;;16;69.6
56272;BME280;42177;48.914;18.160;2024-02-28T11:03:04;987.4;;;16;69.6
56272;BME280;42177;48.914;18.160;2024-02-28T11:08:04;987.2;;;15.9;72.1
56272;BME280;42177;48.914;18.160;2024-02-28T11:13:04;987.2;;;15.9;72.1
56272;BME280;42177;48.914;18.160;2024-02-28T11:18:07;987.3;;;16.4;71.5
56272;BME280;42177;48.914;18.160;2024-02-28T11:23:05;987.3;;;16.4;71.5
56272;BME280;42177;48.914;18.160;2024-02-28T11:28:04;987.3;;;16.9;67.5
56272;BME280;42177;48.914;18.160;2024-02-28T11:33:04;987.3;;;16.9;67.5
56272;BME280;42177;48.914;18.160;2024-02-28T11:38:06;987.3;;;18.3;61.5
56272;BME280;42177;48.914;18.160;2024-02-28T11:43:04;987.3;;;18.3;61.5
56272;BME280;42177;48.914;18.160;2024-02-28T11:48:04;987.2;;;17;64.2
56272;BME280;42177;48.914;18.160;2024-02-28T11:53:04;987.2;;;17;64.2
56272;BME280;42177;48.914;18.160;2024-02-28T11:58:07;987.1;;;17.3;61.3
56272;BME280;42177;48.914;18.160;2024-02-28T12:03:04;987.1;;;17.3;61.3
56272;BME280;42177;48.914;18.160;2024-02-28T12:08:04;987.1;;;17.4;60.6
56272;BME280;42177;48.914;18.160;2024-02-28T12:13:04;987.1;;;17.4;60.6
56272;BME280;42177;48.914;18.160;2024-02-28T12:18:07;987.2;;;17.5;59.7
56272;BME280;42177;48.914;18.160;2024-02-28T12:23:04;987.2;;;17.5;59.7
56272;BME280;42177;48.914;18.160;2024-02-28T12:28:04;987.1;;;17.8;60.4
56272;BME280;42177;48.914;18.160;2024-02-28T12:33:04;987.1;;;17.8;60.4
56272;BME280;42177;48.914;18.160;2024-02-28T12:38:04;987.3;;;17.4;58.9
56272;BME280;42177;48.914;18.160;2024-02-28T12:43:04;987.3;;;17.4;58.9
56272;BME280;42177;48.914;18.160;2024-02-28T12:48:04;987.1;;;17.3;57.5
56272;BME280;42177;48.914;18.160;2024-02-28T12:53:04;987.1;;;17.3;57.5
56272;BME280;42177;48.914;18.160;2024-02-28T12:58:04;987;;;18;56.7
56272;BME280;42177;48.914;18.160;2024-02-28T13:03:04;987;;;18;56.7
56272;BME280;42177;48.914;18.160;2024-02-28T13:08:04;987.1;;;18.7;53.6
56272;BME280;42177;48.914;18.160;2024-02-28T13:13:04;987.1;;;18.7;53.6
56272;BME280;42177;48.914;18.160;2024-02-28T13:18:04;987;;;19;52.7
56272;BME280;42177;48.914;18.160;2024-02-28T13:23:04;987;;;19;52.7
56272;BME280;42177;48.914;18.160;2024-02-28T13:28:04;987;;;18.9;51.7
56272;BME280;42177;48.914;18.160;2024-02-28T13:33:04;987;;;18.9;51.7
56272;BME280;42177;48.914;18.160;2024-02-28T13:38:04;986.9;;;18.6;51.8
56272;BME280;42177;48.914;18.160;2024-02-28T13:43:04;986.9;;;18.6;51.8
56272;BME280;42177;48.914;18.160;2024-02-28T13:48:04;986.9;;;18.5;52
56272;BME280;42177;48.914;18.160;2024-02-28T13:53:04;986.9;;;18.5;52
56272;BME280;42177;48.914;18.160;2024-02-28T13:58:04;987;;;18;53.3
56272;BME280;42177;48.914;18.160;2024-02-28T14:03:04;987;;;18;53.3
56272;BME280;42177;48.914;18.160;2024-02-28T14:08:04;986.9;;;17.9;55.4
56272;BME280;42177;48.914;18.160;2024-02-28T14:13:04;986.9;;;17.9;55.4
56272;BME280;42177;48.914;18.160;2024-02-28T14:18:04;986.8;;;17.9;54.9
56272;BME280;42177;48.914;18.160;2024-02-28T14:23:04;986.8;;;17.9;54.9
56272;BME280;42177;48.914;18.160;2024-02-28T14:28:04;986.9;;;18.1;54
56272;BME280;42177;48.914;18.160;2024-02-28T14:33:04;986.9;;;18.1;54
56272;BME280;42177;48.914;18.160;2024-02-28T14:38:04;987;;;17.8;56.1
56272;BME280;42177;48.914;18.160;2024-02-28T14:43:04;987;;;17.8;56.1
56272;BME280;42177;48.914;18.160;2024-02-28T14:48:04;987;;;17.7;55.3
56272;BME280;42177;48.914;18.160;2024-02-28T14:53:04;987;;;17.7;55.3
56272;BME280;42177;48.914;18.160;2024-02-28T14:58:04;987;;;17.7;55.5
56272;BME280;42177;48.914;18.160;2024-02-28T15:03:04;987;;;17.7;55.5
56272;BME280;42177;48.914;18.160;2024-02-28T15:08:04;987.2;;;17.5;56.2
56272;BME280;42177;48.914;18.160;2024-02-28T15:13:04;987.2;;;17.5;56.2
56272;BME280;42177;48.914;18.160;2024-02-28T15:18:04;987.3;;;17.2;59.4
56272;BME280;42177;48.914;18.160;2024-02-28T15:23:04;987.3;;;17.2;59.4
56272;BME280;42177;48.914;18.160;2024-02-28T15:28:04;987.3;;;17;62.8
56272;BME280;42177;48.914;18.160;2024-02-28T15:33:04;987.3;;;17;62.8
56272;BME280;42177;48.914;18.160;2024-02-28T15:38:04;987.3;;;16.5;66.6
56272;BME280;42177;48.914;18.160;2024-02-28T15:43:04;987.3;;;16.5;66.6
56272;BME280;42177;48.914;18.160;2024-02-28T15:48:04;987.5;;;16.3;67
56272;BME280;42177;48.914;18.160;2024-02-28T15:53:04;987.5;;;16.3;67
56272;BME280;42177;48.914;18.160;2024-02-28T15:58:04;987.5;;;16.3;68.4
56272;BME280;42177;48.914;18.160;2024-02-28T16:03:04;987.5;;;16.3;68.4
56272;BME280;42177;48.914;18.160;2024-02-28T16:08:04;987.5;;;15.8;72.9
56272;BME280;42177;48.914;18.160;2024-02-28T16:13:04;987.5;;;15.8;72.9
56272;BME280;42177;48.914;18.160;2024-02-28T16:18:04;987.6;;;15.7;74.8
56272;BME280;42177;48.914;18.160;2024-02-28T16:23:04;987.6;;;15.7;74.8
56272;BME280;42177;48.914;18.160;2024-02-28T16:28:04;987.7;;;15.6;74.4
56272;BME280;42177;48.914;18.160;2024-02-28T16:33:04;987.7;;;15.6;74.4
56272;BME280;42177;48.914;18.160;2024-02-28T16:38:04;987.8;;;15.5;75.8
56272;BME280;42177;48.914;18.160;2024-02-28T16:43:04;987.8;;;15.5;75.8
56272;BME280;42177;48.914;18.160;2024-02-28T16:48:04;987.9;;;15.5;75.7
56272;BME280;42177;48.914;18.160;2024-02-28T16:53:04;987.9;;;15.5;75.7
56272;BME280;42177;48.914;18.160;2024-02-28T16:58:04;987.9;;;15.4;77
56272;BME280;42177;48.914;18.160;2024-02-28T17:03:04;987.9;;;15.4;77
56272;BME280;42177;48.914;18.160;2024-02-28T17:08:04;988.1;;;15;79.4
56272;BME280;42177;48.914;18.160;2024-02-28T17:13:04;988.1;;;15;79.4
56272;BME280;42177;48.914;18.160;2024-02-28T17:18:04;988.2;;;14.9;80.5
56272;BME280;42177;48.914;18.160;2024-02-28T17:23:04;988.2;;;14.9;80.5
56272;BME280;42177;48.914;18.160;2024-02-28T17:28:05;988.3;;;14.8;79.9
56272;BME280;42177;48.914;18.160;2024-02-28T17:33:04;988.3;;;14.8;79.9
56272;BME280;42177;48.914;18.160;2024-02-28T17:38:04;988.6;;;14.7;80.1
56272;BME280;42177;48.914;18.160;2024-02-28T17:43:04;988.6;;;14.7;80.1
56272;BME280;42177;48.914;18.160;2024-02-28T17:48:04;988.4;;;14.6;80.4
56272;BME280;42177;48.914;18.160;2024-02-28T17:53:04;988.4;;;14.6;80.4
56272;BME280;42177;48.914;18.160;2024-02-28T17:58:04;988.6;;;14.4;81.6
56272;BME280;42177;48.914;18.160;2024-02-28T18:03:04;988.6;;;14.4;81.6
56272;BME280;42177;48.914;18.160;2024-02-28T18:08:04;988.6;;;14.4;81.6
56272;BME280;42177;48.914;18.160;2024-02-28T18:13:04;988.6;;;14.4;81.6
56272;BME280;42177;48.914;18.160;2024-02-28T18:18:04;988.6;;;14.3;81.9
56272;BME280;42177;48.914;18.160;2024-02-28T18:23:04;988.6;;;14.3;81.9
56272;BME280;42177;48.914;18.160;2024-02-28T18:28:04;988.7;;;14.1;83.1
56272;BME280;42177;48.914;18.160;2024-02-28T18:33:04;988.7;;;14.1;83.1
56272;BME280;42177;48.914;18.160;2024-02-28T18:38:04;988.6;;;14.1;82.1
56272;BME280;42177;48.914;18.160;2024-02-28T18:43:04;988.6;;;14.1;82.1
56272;BME280;42177;48.914;18.160;2024-02-28T18:48:04;988.7;;;14;83.3
56272;BME280;42177;48.914;18.160;2024-02-28T18:53:04;988.7;;;14;83.3
56272;BME280;42177;48.914;18.160;2024-02-28T18:58:04;988.8;;;13.9;84.1
56272;BME280;42177;48.914;18.160;2024-02-28T19:03:04;988.8;;;13.9;84.1
56272;BME280;42177;48.914;18.160;2024-02-28T19:08:04;988.9;;;13.6;84.6
56272;BME280;42177;48.914;18.160;2024-02-28T19:13:04;988.9;;;13.6;84.6
56272;BME280;42177;48.914;18.160;2024-02-28T19:18:04;988.9;;;13.4;84.9
56272;BME280;42177;48.914;18.160;2024-02-28T19:23:04;988.9;;;13.4;84.9
56272;BME280;42177;48.914;18.160;2024-02-28T19:28:04;989.1;;;13.4;84.7
56272;BME280;42177;48.914;18.160;2024-02-28T19:33:04;989.1;;;13.4;84.7
56272;BME280;42177;48.914;18.160;2024-02-28T19:38:04;989.2;;;13.3;84.9
56272;BME280;42177;48.914;18.160;2024-02-28T19:43:04;989.2;;;13.3;84.9
56272;BME280;42177;48.914;18.160;2024-02-28T19:48:14;989.3;;;13.4;84.9
56272;BME280;42177;48.914;18.160;2024-02-28T19:53:14;989.3;;;13.4;84.9
56272;BME280;42177;48.914;18.160;2024-02-28T19:58:04;989.4;;;13;85.9
56272;BME280;42177;48.914;18.160;2024-02-28T20:03:04;989.4;;;13;85.9
56272;BME280;42177;48.914;18.160;2024-02-28T20:08:04;989.3;;;13;85.7
56272;BME280;42177;48.914;18.160;2024-02-28T20:13:04;989.3;;;13;85.7
56272;BME280;42177;48.914;18.160;2024-02-28T20:18:04;989.4;;;13.1;85.8
56272;BME280;42177;48.914;18.160;2024-02-28T20:23:04;989.4;;;13.1;85.8
56272;BME280;42177;48.914;18.160;2024-02-28T20:28:04;989.5;;;13;86.3
56272;BME280;42177;48.914;18.160;2024-02-28T20:33:04;989.5;;;13;86.3
56272;BME280;42177;48.914;18.160;2024-02-28T20:38:04;989.5;;;13;86.6
56272;BME280;42177;48.914;18.160;2024-02-28T20:43:04;989.5;;;13;86.6
56272;BME280;42177;48.914;18.160;2024-02-28T20:48:04;989.6;;;13.1;86.3
56272;BME280;42177;48.914;18.160;2024-02-28T20:53:04;989.6;;;13.1;86.3
56272;BME280;42177;48.914;18.160;2024-02-28T20:58:04;989.6;;;12.9;86.3
56272;BME280;42177;48.914;18.160;2024-02-28T21:03:04;989.6;;;12.9;86.3
56272;BME280;42177;48.914;18.160;2024-02-28T21:08:04;989.7;;;13.1;85.5
56272;BME280;42177;48.914;18.160;2024-02-28T21:13:04;989.7;;;13.1;85.5
56272;BME280;42177;48.914;18.160;2024-02-28T21:18:04;989.7;;;13.1;86
56272;BME280;42177;48.914;18.160;2024-02-28T21:23:04;989.7;;;13.1;86
56272;BME280;42177;48.914;18.160;2024-02-28T21:28:04;989.7;;;13.1;86.3
56272;BME280;42177;48.914;18.160;2024-02-28T21:33:04;989.7;;;13.1;86.3
56272;BME280;42177;48.914;18.160;2024-02-28T21:38:04;989.7;;;12.9;86.6
56272;BME280;42177;48.914;18.160;2024-02-28T21:43:04;989.7;;;12.9;86.6
56272;BME280;42177;48.914;18.160;2024-02-28T21:48:04;989.8;;;13.1;86.3
56272;BME280;42177;48.914;18.160;2024-02-28T21:53:04;989.8;;;13.1;86.3
56272;BME280;42177;48.914;18.160;2024-02-28T21:58:04;989.8;;;13;86.5
56272;BME280;42177;48.914;18.160;2024-02-28T22:03:04;989.8;;;13;86.5
56272;BME280;42177;48.914;18.160;2024-02-28T22:08:04;989.8;;;13.2;86
56272;BME280;42177;48.914;18.160;2024-02-28T22:13:04;989.8;;;13.2;86
56272;BME280;42177;48.914;18.160;2024-02-28T22:18:04;989.6;;;13.3;85.9
56272;BME280;42177;48.914;18.160;2024-02-28T22:23:04;989.6;;;13.3;85.9
56272;BME280;42177;48.914;18.160;2024-02-28T22:28:04;989.8;;;13.1;87.1
56272;BME280;42177;48.914;18.160;2024-02-28T22:33:04;989.8;;;13.1;87.1
56272;BME280;42177;48.914;18.160;2024-02-28T22:38:04;989.8;;;12.8;88.2
56272;BME280;42177;48.914;18.160;2024-02-28T22:43:04;989.8;;;12.8;88.2
56272;BME280;42177;48.914;18.160;2024-02-28T22:48:04;989.7;;;12.6;89
56272;BME280;42177;48.914;18.160;2024-02-28T22:53:04;989.7;;;12.6;89
56272;BME280;42177;48.914;18.160;2024-02-28T22:58:04;989.8;;;12.7;89
56272;BME280;42177;48.914;18.160;2024-02-28T23:03:04;989.8;;;12.7;89
56272;BME280;42177;48.914;18.160;2024-02-28T23:08:04;989.7;;;12.8;88.4
56272;BME280;42177;48.914;18.160;2024-02-28T23:13:05;989.7;;;12.8;88.4
56272;BME280;42177;48.914;18.160;2024-02-28T23:18:04;989.6;;;12.7;89.1
56272;BME280;42177;48.914;18.160;2024-02-28T23:23:04;989.6;;;12.7;89.1
56272;BME280;42177;48.914;18.160;2024-02-28T23:28:04;989.6;;;12.7;89
56272;BME280;42177;48.914;18.160;2024-02-28T23:33:04;989.6;;;12.7;89
56272;BME280;42177;48.914;18.160;2024-02-28T23:38:04;989.6;;;12.6;90.2
56272;BME280;42177;48.914;18.160;2024-02-28T23:43:04;989.6;;;12.6;90.2
56272;BME280;42177;48.914;18.160;2024-02-28T23:48:04;989.6;;;12.5;90.4
56272;BME280;42177;48.914;18.160;2024-02-28T23:53:04;989.6;;;12.5;90.4
56272;BME280;42177;48.914;18.160;2024-02-28T23:58:04;989.6;;;12.5;91.1
